createdAt,value
2022-09-22T00:01:26.527Z,2.42
2022-09-22T00:03:57.013Z,2.60
2022-09-22T00:06:27.067Z,2.67
2022-09-22T00:09:00.572Z,1.88
2022-09-22T00:11:31.593Z,3.97
2022-09-22T00:14:04.992Z,3.58
2022-09-22T00:16:37.487Z,2.50
2022-09-22T00:19:14.853Z,3.95
2022-09-22T00:21:42.538Z,2.50
2022-09-22T00:24:10.073Z,3.20
2022-09-22T00:26:38.553Z,2.42
2022-09-22T00:29:09.389Z,2.45
2022-09-22T00:31:41.831Z,3.80
2022-09-22T00:34:14.774Z,3.80
2022-09-22T00:36:42.067Z,3.05
2022-09-22T00:39:09.716Z,3.35
2022-09-22T00:41:41.889Z,2.70
2022-09-22T00:44:31.631Z,3.25
2022-09-22T00:47:20.377Z,2.67
2022-09-22T00:49:56.834Z,4.88
2022-09-22T00:52:35.574Z,2.45
2022-09-22T00:55:37.875Z,2.38
2022-09-22T00:58:09.155Z,3.72
2022-09-22T01:00:37.228Z,2.58
2022-09-22T01:03:09.058Z,2.38
2022-09-22T01:05:37.811Z,2.85
2022-09-22T01:08:05.883Z,2.20
2022-09-22T01:10:33.324Z,4.78
2022-09-22T01:13:15.018Z,2.20
2022-09-22T01:15:54.829Z,2.38
2022-09-22T01:18:49.338Z,2.50
2022-09-22T01:21:57.324Z,2.38
2022-09-22T01:25:01.467Z,2.17
2022-09-22T01:27:48.999Z,2.88
2022-09-22T01:30:25.122Z,2.55
2022-09-22T01:33:25.514Z,1.98
2022-09-22T01:36:18.927Z,6.35
2022-09-22T01:39:07.788Z,1.70
2022-09-22T01:41:53.446Z,3.35
2022-09-22T01:44:55.063Z,2.08
2022-09-22T01:47:24.660Z,3.80
2022-09-22T01:49:57.038Z,2.35
2022-09-22T01:52:35.026Z,1.83
2022-09-22T01:55:40.870Z,3.05
2022-09-22T01:58:16.798Z,1.60
2022-09-22T02:00:53.363Z,2.38
2022-09-22T02:03:27.252Z,2.25
2022-09-22T02:06:04.155Z,2.55
2022-09-22T02:08:39.964Z,1.92
2022-09-22T02:11:13.981Z,3.20
2022-09-22T02:13:46.406Z,3.00
2022-09-22T02:16:17.589Z,3.15
2022-09-22T02:19:13.073Z,3.15
2022-09-22T02:21:43.278Z,2.53
2022-09-22T02:24:35.036Z,2.80
2022-09-22T02:27:12.992Z,3.05
2022-09-22T02:29:51.654Z,2.10
2022-09-22T02:32:20.934Z,2.75
2022-09-22T02:34:48.751Z,3.45
2022-09-22T02:37:23.056Z,3.08
2022-09-22T02:40:06.957Z,2.47
2022-09-22T02:42:47.279Z,3.03
2022-09-22T02:45:39.107Z,2.70
2022-09-22T02:48:40.385Z,2.92
2022-09-22T02:51:08.241Z,2.55
2022-09-22T02:53:36.666Z,4.25
2022-09-22T02:56:04.858Z,2.53
2022-09-22T02:58:32.142Z,2.30
2022-09-22T03:00:59.406Z,2.67
2022-09-22T03:03:26.619Z,3.50
2022-09-22T03:05:53.875Z,1.92
2022-09-22T03:08:21.259Z,2.35
2022-09-22T03:10:48.476Z,4.45
2022-09-22T03:13:17.197Z,2.63
2022-09-22T03:15:46.099Z,3.25
2022-09-22T03:18:14.192Z,1.98
2022-09-22T03:20:41.527Z,2.75
2022-09-22T03:23:08.840Z,3.00
2022-09-22T03:25:36.101Z,2.40
2022-09-22T03:28:03.469Z,3.47
2022-09-22T03:30:31.162Z,3.03
2022-09-22T03:32:58.681Z,2.53
2022-09-22T03:35:26.174Z,3.17
2022-09-22T03:37:53.675Z,2.83
2022-09-22T03:40:22.526Z,3.80
2022-09-22T03:42:49.792Z,2.90
2022-09-22T03:45:17.175Z,2.88
2022-09-22T03:47:44.793Z,3.33
2022-09-22T03:50:12.064Z,3.95
2022-09-22T03:52:41.635Z,3.05
2022-09-22T03:55:09.804Z,3.78
2022-09-22T03:57:37.180Z,2.35
2022-09-22T04:00:06.023Z,3.03
2022-09-22T04:02:33.336Z,3.38
2022-09-22T04:05:00.685Z,3.40
2022-09-22T04:07:28.103Z,3.92
2022-09-22T04:09:55.442Z,2.65
2022-09-22T04:12:22.936Z,4.13
2022-09-22T04:14:50.217Z,2.63
2022-09-22T04:17:19.652Z,2.60
2022-09-22T04:19:47.910Z,2.50
2022-09-22T04:22:15.214Z,2.97
2022-09-22T04:24:42.510Z,3.45
2022-09-22T04:27:19.566Z,3.95
2022-09-22T04:29:48.093Z,3.10
2022-09-22T04:32:15.708Z,2.50
2022-09-22T04:34:43.372Z,3.92
2022-09-22T04:37:11.485Z,4.22
2022-09-22T04:39:38.806Z,3.55
2022-09-22T04:42:06.405Z,3.70
2022-09-22T04:44:35.426Z,3.83
2022-09-22T04:47:03.244Z,4.20
2022-09-22T04:49:31.042Z,3.80
2022-09-22T04:51:58.278Z,3.50
2022-09-22T04:54:25.695Z,5.13
2022-09-22T04:56:53.124Z,3.97
2022-09-22T04:59:20.369Z,3.28
2022-09-22T05:01:47.808Z,4.25
2022-09-22T05:04:15.132Z,4.18
2022-09-22T05:06:42.787Z,3.53
2022-09-22T05:09:10.029Z,3.35
2022-09-22T05:11:38.586Z,4.07
2022-09-22T05:14:05.879Z,3.78
2022-09-22T05:16:33.995Z,5.28
2022-09-22T05:19:01.437Z,4.13
2022-09-22T05:21:28.872Z,4.10
2022-09-22T05:23:56.161Z,4.05
2022-09-22T05:26:24.884Z,4.40
2022-09-22T05:28:52.174Z,4.63
2022-09-22T05:31:19.779Z,5.30
2022-09-22T05:33:47.029Z,3.92
2022-09-22T05:36:14.552Z,4.53
2022-09-22T05:38:42.146Z,4.60
2022-09-22T05:41:09.733Z,4.97
2022-09-22T05:43:37.237Z,4.32
2022-09-22T05:46:04.567Z,4.15
2022-09-22T05:48:31.855Z,4.63
2022-09-22T05:50:59.370Z,6.43
2022-09-22T05:53:27.556Z,4.35
2022-09-22T05:55:56.921Z,4.82
2022-09-22T05:58:24.151Z,6.53
2022-09-22T06:00:51.585Z,4.90
2022-09-22T06:03:19.448Z,4.55
2022-09-22T06:05:46.763Z,6.78
2022-09-22T06:08:14.091Z,5.45
2022-09-22T06:10:41.654Z,5.25
2022-09-22T06:13:11.081Z,5.30
2022-09-22T06:15:38.500Z,5.82
2022-09-22T06:18:11.906Z,5.22
2022-09-22T06:20:43.303Z,4.53
2022-09-22T06:23:12.702Z,5.05
2022-09-22T06:25:39.945Z,5.10
2022-09-22T06:28:09.642Z,7.28
2022-09-22T06:30:41.035Z,7.45
2022-09-22T06:33:09.860Z,8.07
2022-09-22T06:35:37.912Z,7.43
2022-09-22T06:38:07.028Z,8.00
2022-09-22T06:40:37.896Z,5.93
2022-09-22T06:43:11.877Z,6.40
2022-09-22T06:45:40.250Z,7.25
2022-09-22T06:48:10.328Z,7.20
2022-09-22T06:50:40.904Z,8.02
2022-09-22T06:53:11.681Z,8.18
2022-09-22T06:55:40.423Z,6.35
2022-09-22T06:58:08.809Z,6.30
2022-09-22T07:00:36.309Z,7.13
2022-09-22T07:03:20.783Z,7.53
2022-09-22T07:05:54.947Z,9.10
2022-09-22T07:08:23.733Z,5.63
2022-09-22T07:10:59.229Z,7.93
2022-09-22T07:13:29.818Z,7.22
2022-09-22T07:16:07.938Z,5.72
2022-09-22T07:18:40.143Z,6.65
2022-09-22T07:21:10.013Z,7.72
2022-09-22T07:23:37.293Z,7.53
2022-09-22T07:26:06.576Z,7.57
2022-09-22T07:28:36.419Z,7.25
2022-09-22T07:31:09.142Z,7.03
2022-09-22T07:33:37.560Z,7.38
2022-09-22T07:36:13.933Z,7.35
2022-09-22T07:38:43.594Z,8.52
2022-09-22T07:41:16.358Z,8.27
2022-09-22T07:43:43.605Z,6.90
2022-09-22T07:46:12.510Z,8.63
2022-09-22T07:48:45.234Z,7.30
2022-09-22T07:51:20.639Z,8.05
2022-09-22T07:54:07.176Z,7.70
2022-09-22T07:56:35.869Z,8.05
2022-09-22T07:59:10.079Z,7.53
2022-09-22T08:01:39.635Z,9.98
2022-09-22T08:04:07.005Z,10.35
2022-09-22T08:06:35.387Z,7.90
2022-09-22T08:09:03.988Z,8.18
2022-09-22T08:11:31.646Z,9.20
2022-09-22T08:14:04.740Z,10.02
2022-09-22T08:16:37.332Z,11.60
2022-09-22T08:19:12.135Z,12.75
2022-09-22T08:21:49.475Z,13.07
2022-09-22T08:24:22.677Z,12.88
2022-09-22T08:26:52.448Z,14.68
2022-09-22T08:29:20.374Z,16.73
2022-09-22T08:31:49.183Z,14.70
2022-09-22T08:34:17.878Z,16.38
2022-09-22T08:36:49.253Z,15.32
2022-09-22T08:39:18.092Z,16.75
2022-09-22T08:42:10.316Z,16.35
2022-09-22T08:45:15.637Z,22.05
2022-09-22T08:48:06.025Z,21.02
2022-09-22T08:51:14.694Z,22.17
2022-09-22T08:53:49.659Z,21.95
2022-09-22T08:56:34.093Z,22.00
2022-09-22T08:59:22.994Z,22.05
2022-09-22T09:02:02.425Z,23.05
2022-09-22T09:05:12.382Z,23.70
2022-09-22T09:08:05.008Z,24.88
2022-09-22T09:11:02.941Z,23.38
2022-09-22T09:13:46.085Z,27.27
2022-09-22T09:16:37.935Z,23.50
2022-09-22T09:19:27.271Z,24.08
2022-09-22T09:22:01.444Z,23.45
2022-09-22T09:27:33.186Z,24.15
2022-09-22T09:30:03.215Z,23.92
2022-09-22T09:32:40.255Z,23.52
2022-09-22T09:35:14.870Z,24.70
2022-09-22T09:40:18.351Z,28.08
2022-09-22T09:42:51.104Z,31.80
2022-09-22T09:45:20.943Z,30.85
2022-09-22T09:48:02.016Z,30.55
2022-09-22T09:50:32.228Z,28.52
2022-09-22T09:53:00.591Z,32.42
2022-09-22T09:55:28.180Z,33.05
2022-09-22T09:58:08.027Z,30.30
2022-09-22T10:00:59.637Z,35.22
2022-09-22T10:03:33.303Z,34.80
2022-09-22T10:06:04.491Z,33.23
2022-09-22T10:08:36.444Z,34.15
2022-09-22T10:11:05.074Z,35.92
2022-09-22T10:13:37.960Z,34.72
2022-09-22T10:16:07.561Z,32.95
2022-09-22T10:18:40.595Z,34.80
2022-09-22T10:21:24.088Z,34.53
2022-09-22T10:23:59.908Z,39.65
2022-09-22T10:26:32.919Z,33.40
2022-09-22T10:29:21.028Z,37.10
2022-09-22T10:32:16.830Z,38.47
2022-09-22T10:34:50.528Z,33.42
2022-09-22T10:37:24.668Z,43.77
2022-09-22T10:40:01.287Z,36.42
2022-09-22T10:42:54.369Z,35.50
2022-09-22T10:45:36.608Z,34.55
2022-09-22T10:48:27.246Z,38.17
2022-09-22T10:51:20.487Z,38.50
2022-09-22T10:54:13.098Z,38.42
2022-09-22T10:57:09.217Z,38.88
2022-09-22T10:59:47.606Z,37.50
2022-09-22T11:02:34.964Z,39.85
2022-09-22T11:05:44.835Z,37.85
2022-09-22T11:08:34.843Z,36.38
2022-09-22T11:11:34.742Z,36.88
2022-09-22T11:14:16.386Z,38.17
2022-09-22T11:17:06.676Z,34.47
2022-09-22T11:19:47.523Z,39.08
2022-09-22T11:22:59.783Z,35.67
2022-09-22T11:26:01.852Z,36.05
2022-09-22T11:28:57.056Z,36.60
2022-09-22T11:32:02.762Z,38.28
2022-09-22T11:34:45.081Z,38.13
2022-09-22T11:37:31.017Z,38.80
2022-09-22T11:40:17.482Z,38.60
2022-09-22T11:43:13.304Z,38.20
2022-09-22T11:45:45.651Z,37.97
2022-09-22T11:48:50.943Z,37.10
2022-09-22T11:51:41.289Z,37.17
2022-09-22T11:54:39.712Z,37.40
2022-09-22T11:57:14.127Z,37.92
2022-09-22T11:59:57.319Z,39.38
2022-09-22T12:02:41.233Z,39.78
2022-09-22T12:05:27.261Z,38.60
2022-09-22T12:08:02.201Z,37.03
2022-09-22T12:10:41.478Z,36.45
2022-09-22T12:13:16.717Z,37.53
2022-09-22T12:15:59.842Z,36.95
2022-09-22T12:18:36.070Z,37.25
2022-09-22T12:21:33.206Z,38.58
2022-09-22T12:24:09.481Z,36.67
2022-09-22T12:26:48.237Z,36.50
2022-09-22T12:29:15.445Z,38.10
2022-09-22T12:31:44.969Z,37.33
2022-09-22T12:34:25.533Z,37.90
2022-09-22T12:36:57.175Z,37.58
2022-09-22T12:39:29.265Z,38.58
2022-09-22T12:42:02.015Z,36.20
2022-09-22T12:44:49.128Z,37.92
2022-09-22T12:47:26.335Z,34.97
2022-09-22T12:50:23.977Z,35.38
2022-09-22T12:52:51.404Z,35.28
2022-09-22T12:55:40.056Z,33.92
2022-09-22T12:58:22.359Z,34.63
2022-09-22T13:01:13.308Z,34.75
2022-09-22T13:03:47.889Z,36.50
2022-09-22T13:08:53.958Z,31.02
2022-09-22T13:12:00.216Z,32.80
2022-09-22T13:15:12.674Z,32.08
2022-09-22T13:17:41.598Z,30.90
2022-09-22T13:20:35.496Z,32.28
2022-09-22T13:23:21.284Z,30.40
2022-09-22T13:25:50.166Z,31.13
2022-09-22T13:28:22.757Z,29.17
2022-09-22T13:31:04.945Z,30.40
2022-09-22T13:33:35.312Z,28.25
2022-09-22T13:36:11.902Z,26.30
2022-09-22T13:38:51.212Z,24.83
2022-09-22T13:41:24.159Z,27.17
2022-09-22T13:43:56.969Z,29.35
2022-09-22T13:46:45.361Z,26.40
2022-09-22T13:49:22.707Z,24.13
2022-09-22T13:51:57.363Z,27.00
2022-09-22T13:54:29.427Z,23.33
2022-09-22T13:56:57.888Z,23.20
2022-09-22T13:59:31.930Z,22.45
2022-09-22T14:02:10.754Z,23.30
2022-09-22T14:04:39.048Z,23.85
2022-09-22T14:07:11.397Z,20.77
2022-09-22T14:09:40.201Z,23.13
2022-09-22T14:12:10.084Z,20.40
2022-09-22T14:14:39.672Z,19.15
2022-09-22T14:17:08.959Z,20.20
2022-09-22T14:19:42.963Z,18.58
2022-09-22T14:22:22.019Z,19.48
2022-09-22T14:24:56.579Z,17.42
2022-09-22T14:29:55.733Z,18.35
2022-09-22T14:32:22.933Z,16.33
2022-09-22T14:34:54.885Z,16.85
2022-09-22T14:37:45.404Z,17.88
2022-09-22T14:40:19.539Z,16.63
2022-09-22T14:42:58.135Z,17.42
2022-09-22T14:45:27.614Z,16.60
2022-09-22T14:48:18.289Z,15.98
2022-09-22T14:50:52.955Z,14.77
2022-09-22T14:53:34.114Z,14.57
2022-09-22T14:56:11.867Z,13.15
2022-09-22T14:58:42.490Z,12.90
2022-09-22T15:01:50.504Z,14.15
2022-09-22T15:04:31.132Z,13.52
2022-09-22T15:06:59.114Z,12.95
2022-09-22T15:09:39.544Z,12.93
2022-09-22T15:12:27.214Z,12.32
2022-09-22T15:14:59.917Z,13.38
2022-09-22T15:17:58.141Z,10.85
2022-09-22T15:20:42.839Z,11.80
2022-09-22T15:23:31.736Z,11.93
2022-09-22T15:26:06.375Z,12.38
2022-09-22T15:28:37.834Z,12.05
2022-09-22T15:31:06.203Z,11.30
2022-09-22T15:33:33.569Z,10.90
2022-09-22T15:36:11.119Z,11.23
2022-09-22T15:38:39.135Z,11.30
2022-09-22T15:41:06.875Z,10.52
2022-09-22T15:43:34.294Z,11.35
2022-09-22T15:46:04.432Z,12.40
2022-09-22T15:48:35.090Z,12.15
2022-09-22T15:51:07.849Z,13.88
2022-09-22T15:53:35.952Z,12.55
2022-09-22T15:56:06.602Z,13.00
2022-09-22T15:58:41.010Z,12.25
2022-09-22T16:01:09.387Z,12.43
2022-09-22T16:03:41.229Z,12.98
2022-09-22T16:06:12.646Z,13.05
2022-09-22T16:08:42.790Z,16.05
2022-09-22T16:11:29.453Z,16.98
2022-09-22T16:14:00.567Z,13.60
2022-09-22T16:16:28.687Z,12.65
2022-09-22T16:18:57.243Z,11.60
2022-09-22T16:21:27.289Z,12.32
2022-09-22T16:23:59.409Z,10.15
2022-09-22T16:26:31.380Z,11.10
2022-09-22T16:28:59.482Z,9.55
2022-09-22T16:31:27.529Z,12.70
2022-09-22T16:33:56.781Z,9.10
2022-09-22T16:36:26.181Z,8.50
2022-09-22T16:38:55.391Z,8.73
2022-09-22T16:41:26.172Z,16.15
2022-09-22T16:43:54.886Z,11.00
2022-09-22T16:46:28.878Z,8.55
2022-09-22T16:48:58.880Z,9.13
2022-09-22T16:51:27.055Z,10.50
2022-09-22T16:53:54.567Z,9.88
2022-09-22T16:56:24.298Z,10.38
2022-09-22T16:58:52.522Z,5.10
2022-09-22T17:01:20.497Z,8.57
2022-09-22T17:03:50.143Z,6.75
2022-09-22T17:06:24.327Z,5.57
2022-09-22T17:08:53.649Z,6.70
2022-09-22T17:11:24.501Z,5.25
2022-09-22T17:13:51.784Z,5.68
2022-09-22T17:16:21.821Z,5.70
2022-09-22T17:19:02.328Z,4.03
2022-09-22T17:21:34.413Z,3.40
2022-09-22T17:24:03.053Z,6.15
2022-09-22T17:26:36.600Z,3.13
2022-09-22T17:29:06.195Z,3.65
2022-09-22T17:31:35.909Z,5.88
2022-09-22T17:34:03.781Z,4.78
2022-09-22T17:36:31.031Z,5.00
2022-09-22T17:39:00.565Z,3.95
2022-09-22T17:41:31.493Z,3.78
2022-09-22T17:44:02.186Z,4.53
2022-09-22T17:46:32.103Z,5.53
2022-09-22T17:49:18.545Z,4.97
2022-09-22T17:52:08.049Z,5.20
2022-09-22T17:54:58.947Z,6.43
2022-09-22T17:57:31.294Z,5.20
2022-09-22T17:59:59.422Z,3.83
2022-09-22T18:02:29.586Z,3.13
2022-09-22T18:04:56.939Z,4.22
2022-09-22T18:07:26.718Z,6.07
2022-09-22T18:09:55.952Z,6.47
2022-09-22T18:12:25.118Z,7.05
2022-09-22T18:14:55.583Z,6.30
2022-09-22T18:17:27.777Z,170.55
2022-09-22T18:19:56.577Z,17.88
2022-09-22T18:22:25.271Z,10.98
2022-09-22T18:24:57.307Z,8.88
2022-09-22T18:27:29.840Z,11.60
2022-09-22T18:29:59.835Z,12.33
2022-09-22T18:32:28.019Z,9.95
2022-09-22T18:34:55.720Z,11.20
2022-09-22T18:37:25.111Z,10.93
2022-09-22T18:39:52.661Z,13.73
2022-09-22T18:42:24.110Z,11.43
2022-09-22T18:44:52.551Z,9.50
2022-09-22T18:47:22.972Z,8.98
2022-09-22T18:49:51.741Z,16.85
2022-09-22T18:52:24.067Z,16.85
2022-09-22T18:54:56.088Z,17.13
2022-09-22T18:57:28.894Z,33.47
2022-09-22T18:59:59.893Z,64.28
2022-09-22T19:02:27.516Z,20.40
2022-09-22T19:04:55.179Z,30.70
2022-09-22T19:07:43.661Z,26.60
2022-09-22T19:10:14.103Z,31.45
2022-09-22T19:12:42.533Z,21.17
2022-09-22T19:15:16.755Z,12.60
2022-09-22T19:17:45.849Z,16.88
2022-09-22T19:20:18.856Z,18.13
2022-09-22T19:22:47.064Z,45.08
2022-09-22T19:25:15.432Z,24.70
2022-09-22T19:27:42.777Z,23.77
2022-09-22T19:30:11.585Z,30.23
2022-09-22T19:32:39.920Z,18.13
2022-09-22T19:35:08.375Z,21.30
2022-09-22T19:37:36.029Z,21.42
2022-09-22T19:40:04.720Z,13.73
2022-09-22T19:42:32.184Z,17.00
2022-09-22T19:44:59.491Z,21.83
2022-09-22T19:47:26.833Z,24.55
2022-09-22T19:49:55.045Z,21.50
2022-09-22T19:52:22.429Z,14.88
2022-09-22T19:54:50.126Z,16.00
2022-09-22T19:57:17.419Z,14.10
2022-09-22T19:59:44.972Z,20.55
2022-09-22T20:02:14.300Z,19.38
2022-09-22T20:04:42.066Z,13.60
2022-09-22T20:07:10.944Z,18.55
2022-09-22T20:09:38.557Z,14.35
2022-09-22T20:12:06.541Z,17.92
2022-09-22T20:14:34.465Z,16.55
2022-09-22T20:17:05.663Z,17.55
2022-09-22T20:19:35.767Z,19.77
2022-09-22T20:22:27.635Z,22.83
2022-09-22T20:25:00.510Z,11.77
2022-09-22T20:27:29.620Z,14.77
2022-09-22T20:29:57.785Z,17.30
2022-09-22T20:32:34.672Z,13.63
2022-09-22T20:35:01.960Z,17.00
2022-09-22T20:37:30.537Z,14.93
2022-09-22T20:39:57.773Z,9.50
2022-09-22T20:42:25.205Z,13.50
2022-09-22T20:44:52.433Z,14.23
2022-09-22T20:47:25.247Z,9.10
2022-09-22T20:49:52.563Z,9.38
2022-09-22T20:52:21.009Z,10.32
2022-09-22T20:54:49.021Z,9.07
2022-09-22T20:57:16.908Z,7.45
2022-09-22T20:59:45.633Z,9.85
2022-09-22T21:02:14.244Z,10.10
2022-09-22T21:04:42.404Z,9.88
2022-09-22T21:07:11.524Z,7.60
2022-09-22T21:09:57.720Z,6.85
2022-09-22T21:12:30.779Z,5.50
2022-09-22T21:14:58.901Z,7.23
2022-09-22T21:17:29.909Z,6.43
2022-09-22T21:19:57.908Z,7.15
2022-09-22T21:22:28.137Z,8.60
2022-09-22T21:24:56.504Z,6.63
2022-09-22T21:27:25.041Z,5.07
2022-09-22T21:29:53.184Z,8.82
2022-09-22T21:32:20.775Z,4.35
2022-09-22T21:34:48.152Z,8.95
2022-09-22T21:37:15.641Z,6.20
2022-09-22T21:39:42.948Z,6.07
2022-09-22T21:42:10.251Z,3.85
2022-09-22T21:44:37.523Z,5.03
2022-09-22T21:47:04.966Z,5.10
2022-09-22T21:49:32.983Z,4.80
2022-09-22T21:52:01.104Z,4.75
2022-09-22T21:54:28.407Z,4.13
2022-09-22T21:56:56.621Z,5.93
2022-09-22T21:59:24.140Z,5.20
2022-09-22T22:01:51.471Z,5.38
2022-09-22T22:04:19.028Z,6.15
2022-09-22T22:06:46.850Z,4.82
2022-09-22T22:09:18.509Z,5.05
2022-09-22T22:11:55.642Z,5.53
2022-09-22T22:14:26.095Z,5.13
2022-09-22T22:16:55.460Z,5.43
2022-09-22T22:19:26.851Z,4.45
2022-09-22T22:21:54.653Z,4.28
2022-09-22T22:24:39.413Z,6.05
2022-09-22T22:27:10.052Z,6.55
2022-09-22T22:29:41.038Z,5.57
2022-09-22T22:32:10.187Z,6.15
2022-09-22T22:34:38.004Z,4.25
2022-09-22T22:37:09.458Z,8.10
2022-09-22T22:39:37.489Z,5.22
2022-09-22T22:42:05.136Z,5.68
2022-09-22T22:44:32.499Z,5.05
2022-09-22T22:46:59.763Z,5.32
2022-09-22T22:49:27.383Z,6.65
2022-09-22T22:51:54.709Z,5.35
2022-09-22T22:54:21.999Z,5.72
2022-09-22T22:56:51.434Z,5.95
2022-09-22T22:59:19.294Z,6.85
2022-09-22T23:01:46.619Z,8.18
2022-09-22T23:04:13.974Z,5.53
2022-09-22T23:06:45.114Z,6.78
2022-09-22T23:09:16.467Z,6.32
2022-09-22T23:11:45.486Z,6.32
2022-09-22T23:14:14.204Z,6.35
2022-09-22T23:16:46.729Z,7.03
2022-09-22T23:19:16.930Z,5.57
2022-09-22T23:21:45.235Z,9.68
2022-09-22T23:24:16.259Z,7.05
2022-09-22T23:26:45.731Z,7.90
2022-09-22T23:32:27.617Z,5.80
2022-09-22T23:34:54.886Z,7.65
2022-09-22T23:37:25.024Z,7.07
2022-09-22T23:39:52.426Z,7.47
2022-09-22T23:42:19.792Z,7.38
2022-09-22T23:44:47.311Z,8.05
2022-09-22T23:47:16.349Z,7.03
2022-09-22T23:49:44.295Z,7.53
2022-09-22T23:52:11.580Z,7.88
2022-09-22T23:54:38.930Z,10.27
2022-09-22T23:57:06.301Z,6.68
2022-09-22T23:59:33.655Z,7.82
